Hlavní strana
METAR-TAF:

METAR-TAF

Letiště :

Nairobi, Keňa

zeměpisná šířka: 01-19S, zeměpisná délka: 036-49E, výška: 1683 m

Aktuální stav počasí

Zpráva byla vytvořena před 2 hodinami a 31 minutami, v 11:00 UTC
Severoseverozápadní vítr 5 kt
Teplota 20°C
Vlhkost vzduchu 56%
Tlak 1023 hPa
Viditelnost 10 km a více
Oblačno až skoro zataženo ve výšce 2200 ft

METAR: HKNW 171100Z 33005KT 9999 BKN022 20/11 Q1023

Čas: 16:31 (13:31 UTC)


TAF: chybějící

Stav a předpovědi počasí z více než 4 000 letišť (zprávy METAR a TAF).

Červené a žluté tečky na mapě představují dostupné meteorologické stanice.

Když kurzor umístíte na tečku, zobrazí se název stanice.

Pak kliknutím zobrazíte stav a předpověď počasí.

Chcete-li změnit mapu, kliknutím na zelené tlačítko se znaménkem +mapu přiblížíte, kliknutím na zelené tlačítko se znaménkem – mapu oddálíte a kliknutím na zelené šipky přejdete na sousední mapy.


METAR-TAF: